sensor_id;sensor_type;location;lat;lon;timestamp;P1;durP1;ratioP1;P2;durP2;ratioP2
30519;SDS011;17300;50.374;8.006;2022-07-29T00:01:15;1.30;;;1.20;;
30519;SDS011;17300;50.374;8.006;2022-07-29T00:03:42;1.77;;;1.30;;
30519;SDS011;17300;50.374;8.006;2022-07-29T00:06:09;2.20;;;1.20;;
30519;SDS011;17300;50.374;8.006;2022-07-29T00:08:37;1.83;;;1.40;;
30519;SDS011;17300;50.374;8.006;2022-07-29T00:11:03;1.30;;;1.20;;
30519;SDS011;17300;50.374;8.006;2022-07-29T00:13:30;2.13;;;1.20;;
30519;SDS011;17300;50.374;8.006;2022-07-29T00:15:57;2.37;;;1.10;;
30519;SDS011;17300;50.374;8.006;2022-07-29T00:18:24;4.77;;;1.00;;
30519;SDS011;17300;50.374;8.006;2022-07-29T00:20:51;2.23;;;1.00;;
30519;SDS011;17300;50.374;8.006;2022-07-29T00:23:18;0.80;;;0.80;;
30519;SDS011;17300;50.374;8.006;2022-07-29T00:25:46;1.67;;;1.00;;
30519;SDS011;17300;50.374;8.006;2022-07-29T00:28:13;1.40;;;1.13;;
30519;SDS011;17300;50.374;8.006;2022-07-29T00:30:40;1.20;;;1.10;;
30519;SDS011;17300;50.374;8.006;2022-07-29T00:33:08;1.37;;;1.27;;
30519;SDS011;17300;50.374;8.006;2022-07-29T00:35:34;2.00;;;1.30;;
30519;SDS011;17300;50.374;8.006;2022-07-29T00:38:10;1.77;;;1.10;;
30519;SDS011;17300;50.374;8.006;2022-07-29T00:40:37;1.70;;;1.23;;
30519;SDS011;17300;50.374;8.006;2022-07-29T00:43:05;1.10;;;1.00;;
30519;SDS011;17300;50.374;8.006;2022-07-29T00:45:32;2.43;;;1.60;;
30519;SDS011;17300;50.374;8.006;2022-07-29T00:47:59;1.97;;;1.40;;
30519;SDS011;17300;50.374;8.006;2022-07-29T00:50:25;2.70;;;1.43;;
30519;SDS011;17300;50.374;8.006;2022-07-29T00:52:52;1.83;;;1.10;;
30519;SDS011;17300;50.374;8.006;2022-07-29T00:55:20;1.63;;;1.30;;
30519;SDS011;17300;50.374;8.006;2022-07-29T00:57:46;2.23;;;1.20;;
30519;SDS011;17300;50.374;8.006;2022-07-29T01:00:16;1.77;;;1.23;;
30519;SDS011;17300;50.374;8.006;2022-07-29T01:02:44;1.53;;;1.30;;
30519;SDS011;17300;50.374;8.006;2022-07-29T01:05:13;2.10;;;1.50;;
30519;SDS011;17300;50.374;8.006;2022-07-29T01:07:42;1.70;;;1.40;;
30519;SDS011;17300;50.374;8.006;2022-07-29T01:10:10;1.67;;;1.13;;
30519;SDS011;17300;50.374;8.006;2022-07-29T01:12:39;2.57;;;1.20;;
30519;SDS011;17300;50.374;8.006;2022-07-29T01:15:08;1.63;;;1.10;;
30519;SDS011;17300;50.374;8.006;2022-07-29T01:17:39;1.33;;;1.10;;
30519;SDS011;17300;50.374;8.006;2022-07-29T01:20:10;1.20;;;1.00;;
30519;SDS011;17300;50.374;8.006;2022-07-29T01:22:47;3.43;;;1.13;;
30519;SDS011;17300;50.374;8.006;2022-07-29T01:28:40;1.90;;;1.10;;
30519;SDS011;17300;50.374;8.006;2022-07-29T01:31:25;1.67;;;1.20;;
30519;SDS011;17300;50.374;8.006;2022-07-29T01:33:58;1.53;;;1.27;;
30519;SDS011;17300;50.374;8.006;2022-07-29T01:36:35;1.97;;;1.20;;
30519;SDS011;17300;50.374;8.006;2022-07-29T01:39:10;2.50;;;1.20;;
30519;SDS011;17300;50.374;8.006;2022-07-29T01:41:42;2.83;;;1.20;;
30519;SDS011;17300;50.374;8.006;2022-07-29T01:44:18;1.93;;;1.27;;
30519;SDS011;17300;50.374;8.006;2022-07-29T01:46:51;1.57;;;1.10;;
30519;SDS011;17300;50.374;8.006;2022-07-29T01:49:24;1.17;;;1.03;;
30519;SDS011;17300;50.374;8.006;2022-07-29T01:51:54;1.83;;;1.10;;
30519;SDS011;17300;50.374;8.006;2022-07-29T01:54:26;1.43;;;1.13;;
30519;SDS011;17300;50.374;8.006;2022-07-29T01:56:56;1.40;;;1.00;;
30519;SDS011;17300;50.374;8.006;2022-07-29T01:59:26;1.93;;;1.20;;
30519;SDS011;17300;50.374;8.006;2022-07-29T02:01:56;1.50;;;1.13;;
30519;SDS011;17300;50.374;8.006;2022-07-29T02:04:24;1.60;;;1.23;;
30519;SDS011;17300;50.374;8.006;2022-07-29T02:06:52;2.70;;;1.20;;
30519;SDS011;17300;50.374;8.006;2022-07-29T02:09:22;3.37;;;1.40;;
30519;SDS011;17300;50.374;8.006;2022-07-29T02:11:52;1.20;;;1.10;;
30519;SDS011;17300;50.374;8.006;2022-07-29T02:14:21;1.30;;;1.17;;
30519;SDS011;17300;50.374;8.006;2022-07-29T02:16:52;1.70;;;1.40;;
30519;SDS011;17300;50.374;8.006;2022-07-29T02:19:21;1.30;;;1.20;;
30519;SDS011;17300;50.374;8.006;2022-07-29T02:21:49;2.90;;;1.10;;
30519;SDS011;17300;50.374;8.006;2022-07-29T02:24:19;1.40;;;1.27;;
30519;SDS011;17300;50.374;8.006;2022-07-29T02:26:48;1.53;;;1.17;;
30519;SDS011;17300;50.374;8.006;2022-07-29T02:29:17;1.30;;;1.20;;
30519;SDS011;17300;50.374;8.006;2022-07-29T02:31:46;1.73;;;1.27;;
30519;SDS011;17300;50.374;8.006;2022-07-29T02:34:18;1.90;;;1.20;;
30519;SDS011;17300;50.374;8.006;2022-07-29T02:36:46;1.60;;;1.27;;
30519;SDS011;17300;50.374;8.006;2022-07-29T02:39:13;3.90;;;1.13;;
30519;SDS011;17300;50.374;8.006;2022-07-29T02:41:42;2.20;;;1.23;;
30519;SDS011;17300;50.374;8.006;2022-07-29T02:44:11;1.77;;;1.20;;
30519;SDS011;17300;50.374;8.006;2022-07-29T02:46:41;1.50;;;1.30;;
30519;SDS011;17300;50.374;8.006;2022-07-29T02:49:15;1.53;;;1.43;;
30519;SDS011;17300;50.374;8.006;2022-07-29T02:51:45;1.60;;;1.30;;
30519;SDS011;17300;50.374;8.006;2022-07-29T02:54:18;1.80;;;1.30;;
30519;SDS011;17300;50.374;8.006;2022-07-29T02:56:49;1.40;;;1.30;;
30519;SDS011;17300;50.374;8.006;2022-07-29T02:59:22;2.77;;;1.23;;
30519;SDS011;17300;50.374;8.006;2022-07-29T03:01:51;3.43;;;1.47;;
30519;SDS011;17300;50.374;8.006;2022-07-29T03:04:21;1.30;;;1.00;;
30519;SDS011;17300;50.374;8.006;2022-07-29T03:06:50;2.03;;;1.30;;
30519;SDS011;17300;50.374;8.006;2022-07-29T03:09:18;1.80;;;1.03;;
30519;SDS011;17300;50.374;8.006;2022-07-29T03:11:45;1.20;;;1.10;;
30519;SDS011;17300;50.374;8.006;2022-07-29T03:14:13;1.70;;;1.50;;
30519;SDS011;17300;50.374;8.006;2022-07-29T03:16:40;1.83;;;1.40;;
30519;SDS011;17300;50.374;8.006;2022-07-29T03:19:07;1.70;;;1.20;;
30519;SDS011;17300;50.374;8.006;2022-07-29T03:21:36;2.07;;;1.20;;
30519;SDS011;17300;50.374;8.006;2022-07-29T03:24:02;1.50;;;1.40;;
30519;SDS011;17300;50.374;8.006;2022-07-29T03:26:29;3.33;;;1.10;;
30519;SDS011;17300;50.374;8.006;2022-07-29T03:28:56;1.70;;;1.17;;
30519;SDS011;17300;50.374;8.006;2022-07-29T03:31:23;1.70;;;1.30;;
30519;SDS011;17300;50.374;8.006;2022-07-29T03:33:49;1.97;;;1.30;;
30519;SDS011;17300;50.374;8.006;2022-07-29T03:36:16;1.30;;;1.20;;
30519;SDS011;17300;50.374;8.006;2022-07-29T03:38:44;2.27;;;1.30;;
30519;SDS011;17300;50.374;8.006;2022-07-29T03:41:13;1.63;;;1.20;;
30519;SDS011;17300;50.374;8.006;2022-07-29T03:43:42;1.37;;;1.27;;
30519;SDS011;17300;50.374;8.006;2022-07-29T03:46:10;3.03;;;1.30;;
30519;SDS011;17300;50.374;8.006;2022-07-29T03:48:40;1.80;;;1.30;;
30519;SDS011;17300;50.374;8.006;2022-07-29T03:51:11;2.50;;;1.30;;
30519;SDS011;17300;50.374;8.006;2022-07-29T03:53:39;1.93;;;1.30;;
30519;SDS011;17300;50.374;8.006;2022-07-29T03:56:07;1.43;;;1.17;;
30519;SDS011;17300;50.374;8.006;2022-07-29T03:58:38;1.53;;;1.07;;
30519;SDS011;17300;50.374;8.006;2022-07-29T04:01:05;1.33;;;1.23;;
30519;SDS011;17300;50.374;8.006;2022-07-29T04:03:31;1.30;;;1.13;;
30519;SDS011;17300;50.374;8.006;2022-07-29T04:06:00;2.23;;;1.30;;
30519;SDS011;17300;50.374;8.006;2022-07-29T04:08:30;1.60;;;1.17;;
30519;SDS011;17300;50.374;8.006;2022-07-29T04:10:57;1.50;;;1.13;;
30519;SDS011;17300;50.374;8.006;2022-07-29T04:13:25;1.40;;;1.30;;
30519;SDS011;17300;50.374;8.006;2022-07-29T04:15:52;1.40;;;1.20;;
30519;SDS011;17300;50.374;8.006;2022-07-29T04:18:19;1.43;;;1.33;;
30519;SDS011;17300;50.374;8.006;2022-07-29T04:20:45;1.80;;;1.23;;
30519;SDS011;17300;50.374;8.006;2022-07-29T04:23:12;1.70;;;1.33;;
30519;SDS011;17300;50.374;8.006;2022-07-29T04:25:39;2.13;;;1.30;;
30519;SDS011;17300;50.374;8.006;2022-07-29T04:28:07;1.73;;;1.37;;
30519;SDS011;17300;50.374;8.006;2022-07-29T04:30:35;1.60;;;1.40;;
30519;SDS011;17300;50.374;8.006;2022-07-29T04:33:04;2.20;;;1.10;;
30519;SDS011;17300;50.374;8.006;2022-07-29T04:35:34;1.63;;;1.30;;
30519;SDS011;17300;50.374;8.006;2022-07-29T04:38:01;1.47;;;1.37;;
30519;SDS011;17300;50.374;8.006;2022-07-29T04:40:28;2.60;;;1.80;;
30519;SDS011;17300;50.374;8.006;2022-07-29T04:42:57;2.20;;;1.60;;
30519;SDS011;17300;50.374;8.006;2022-07-29T04:45:25;1.40;;;1.30;;
30519;SDS011;17300;50.374;8.006;2022-07-29T04:47:53;1.83;;;1.30;;
30519;SDS011;17300;50.374;8.006;2022-07-29T04:50:19;2.00;;;1.50;;
30519;SDS011;17300;50.374;8.006;2022-07-29T04:52:47;2.87;;;1.37;;
30519;SDS011;17300;50.374;8.006;2022-07-29T04:55:13;1.83;;;1.23;;
30519;SDS011;17300;50.374;8.006;2022-07-29T04:57:40;1.50;;;1.33;;
30519;SDS011;17300;50.374;8.006;2022-07-29T05:00:07;2.23;;;1.73;;
30519;SDS011;17300;50.374;8.006;2022-07-29T05:02:35;2.40;;;1.57;;
30519;SDS011;17300;50.374;8.006;2022-07-29T05:05:04;1.70;;;1.50;;
30519;SDS011;17300;50.374;8.006;2022-07-29T05:07:31;1.30;;;1.20;;
30519;SDS011;17300;50.374;8.006;2022-07-29T05:09:58;1.93;;;1.50;;
30519;SDS011;17300;50.374;8.006;2022-07-29T05:12:24;1.40;;;1.20;;
30519;SDS011;17300;50.374;8.006;2022-07-29T05:14:52;2.50;;;1.60;;
30519;SDS011;17300;50.374;8.006;2022-07-29T05:17:19;3.40;;;2.63;;
30519;SDS011;17300;50.374;8.006;2022-07-29T05:19:46;3.17;;;2.30;;
30519;SDS011;17300;50.374;8.006;2022-07-29T05:22:14;3.77;;;2.53;;
30519;SDS011;17300;50.374;8.006;2022-07-29T05:24:41;4.60;;;2.50;;
30519;SDS011;17300;50.374;8.006;2022-07-29T05:27:08;2.43;;;2.10;;
30519;SDS011;17300;50.374;8.006;2022-07-29T05:29:35;2.80;;;2.20;;
30519;SDS011;17300;50.374;8.006;2022-07-29T05:32:02;3.27;;;2.27;;
30519;SDS011;17300;50.374;8.006;2022-07-29T05:34:29;3.07;;;2.00;;
30519;SDS011;17300;50.374;8.006;2022-07-29T05:36:55;2.00;;;1.80;;
30519;SDS011;17300;50.374;8.006;2022-07-29T05:39:24;3.17;;;2.00;;
30519;SDS011;17300;50.374;8.006;2022-07-29T05:41:50;2.00;;;1.73;;
30519;SDS011;17300;50.374;8.006;2022-07-29T05:44:17;2.50;;;1.83;;
30519;SDS011;17300;50.374;8.006;2022-07-29T05:46:44;2.00;;;1.63;;
30519;SDS011;17300;50.374;8.006;2022-07-29T05:49:10;1.80;;;1.70;;
30519;SDS011;17300;50.374;8.006;2022-07-29T05:51:37;2.20;;;1.80;;
30519;SDS011;17300;50.374;8.006;2022-07-29T05:54:05;3.37;;;1.80;;
30519;SDS011;17300;50.374;8.006;2022-07-29T05:56:33;2.10;;;1.90;;
30519;SDS011;17300;50.374;8.006;2022-07-29T05:59:01;2.03;;;1.77;;
30519;SDS011;17300;50.374;8.006;2022-07-29T06:01:28;1.77;;;1.67;;
30519;SDS011;17300;50.374;8.006;2022-07-29T06:03:55;2.30;;;1.70;;
30519;SDS011;17300;50.374;8.006;2022-07-29T06:06:22;2.33;;;1.75;;
30519;SDS011;17300;50.374;8.006;2022-07-29T06:08:49;2.05;;;1.63;;
30519;SDS011;17300;50.374;8.006;2022-07-29T06:11:15;1.92;;;1.55;;
30519;SDS011;17300;50.374;8.006;2022-07-29T06:13:43;1.70;;;1.50;;
30519;SDS011;17300;50.374;8.006;2022-07-29T06:16:10;1.95;;;1.55;;
30519;SDS011;17300;50.374;8.006;2022-07-29T06:18:37;1.77;;;1.40;;
30519;SDS011;17300;50.374;8.006;2022-07-29T06:21:06;1.50;;;1.35;;
30519;SDS011;17300;50.374;8.006;2022-07-29T06:23:34;1.92;;;1.50;;
30519;SDS011;17300;50.374;8.006;2022-07-29T06:26:07;4.30;;;2.03;;
30519;SDS011;17300;50.374;8.006;2022-07-29T06:28:42;2.33;;;1.40;;
30519;SDS011;17300;50.374;8.006;2022-07-29T06:31:11;1.42;;;1.33;;
30519;SDS011;17300;50.374;8.006;2022-07-29T06:33:38;2.08;;;1.27;;
30519;SDS011;17300;50.374;8.006;2022-07-29T06:36:05;1.92;;;1.58;;
30519;SDS011;17300;50.374;8.006;2022-07-29T06:38:32;1.83;;;1.20;;
30519;SDS011;17300;50.374;8.006;2022-07-29T06:40:59;2.05;;;1.30;;
30519;SDS011;17300;50.374;8.006;2022-07-29T06:43:27;1.92;;;1.48;;
30519;SDS011;17300;50.374;8.006;2022-07-29T06:45:59;1.92;;;1.50;;
30519;SDS011;17300;50.374;8.006;2022-07-29T06:48:26;1.73;;;1.20;;
30519;SDS011;17300;50.374;8.006;2022-07-29T06:50:53;2.60;;;1.10;;
30519;SDS011;17300;50.374;8.006;2022-07-29T06:53:20;1.33;;;1.20;;
30519;SDS011;17300;50.374;8.006;2022-07-29T06:55:47;1.40;;;1.10;;
30519;SDS011;17300;50.374;8.006;2022-07-29T06:58:14;1.60;;;1.13;;
30519;SDS011;17300;50.374;8.006;2022-07-29T07:00:42;1.75;;;1.40;;
30519;SDS011;17300;50.374;8.006;2022-07-29T07:03:11;1.20;;;1.10;;
30519;SDS011;17300;50.374;8.006;2022-07-29T07:05:38;1.25;;;1.15;;
30519;SDS011;17300;50.374;8.006;2022-07-29T07:08:05;1.40;;;1.27;;
30519;SDS011;17300;50.374;8.006;2022-07-29T07:10:33;1.40;;;1.30;;
30519;SDS011;17300;50.374;8.006;2022-07-29T07:13:00;1.55;;;1.20;;
30519;SDS011;17300;50.374;8.006;2022-07-29T07:15:28;1.48;;;1.38;;
30519;SDS011;17300;50.374;8.006;2022-07-29T07:17:55;1.50;;;1.30;;
30519;SDS011;17300;50.374;8.006;2022-07-29T07:20:23;1.60;;;1.15;;
30519;SDS011;17300;50.374;8.006;2022-07-29T07:22:50;2.08;;;1.10;;
30519;SDS011;17300;50.374;8.006;2022-07-29T07:25:17;1.38;;;1.23;;
30519;SDS011;17300;50.374;8.006;2022-07-29T07:27:44;1.65;;;1.13;;
30519;SDS011;17300;50.374;8.006;2022-07-29T07:30:11;1.10;;;1.10;;
30519;SDS011;17300;50.374;8.006;2022-07-29T07:32:39;2.15;;;1.35;;
30519;SDS011;17300;50.374;8.006;2022-07-29T07:35:06;1.98;;;1.33;;
30519;SDS011;17300;50.374;8.006;2022-07-29T07:37:35;3.20;;;1.10;;
30519;SDS011;17300;50.374;8.006;2022-07-29T07:40:03;1.23;;;1.00;;
30519;SDS011;17300;50.374;8.006;2022-07-29T07:42:31;1.67;;;1.23;;
30519;SDS011;17300;50.374;8.006;2022-07-29T07:44:58;1.33;;;1.13;;
30519;SDS011;17300;50.374;8.006;2022-07-29T07:47:24;1.50;;;1.40;;
30519;SDS011;17300;50.374;8.006;2022-07-29T07:49:51;1.48;;;1.17;;
30519;SDS011;17300;50.374;8.006;2022-07-29T07:52:19;1.90;;;1.48;;
30519;SDS011;17300;50.374;8.006;2022-07-29T07:54:48;2.33;;;1.20;;
30519;SDS011;17300;50.374;8.006;2022-07-29T07:57:15;3.33;;;1.27;;
30519;SDS011;17300;50.374;8.006;2022-07-29T07:59:42;1.50;;;1.40;;
30519;SDS011;17300;50.374;8.006;2022-07-29T08:02:09;2.40;;;1.35;;
30519;SDS011;17300;50.374;8.006;2022-07-29T08:04:36;1.38;;;1.20;;
30519;SDS011;17300;50.374;8.006;2022-07-29T08:07:05;2.17;;;1.40;;
30519;SDS011;17300;50.374;8.006;2022-07-29T08:09:33;1.73;;;1.38;;
30519;SDS011;17300;50.374;8.006;2022-07-29T08:12:01;1.27;;;1.17;;
30519;SDS011;17300;50.374;8.006;2022-07-29T08:14:30;1.67;;;1.20;;
30519;SDS011;17300;50.374;8.006;2022-07-29T08:16:58;2.08;;;1.20;;
30519;SDS011;17300;50.374;8.006;2022-07-29T08:19:25;1.70;;;1.48;;
30519;SDS011;17300;50.374;8.006;2022-07-29T08:21:52;3.42;;;1.65;;
30519;SDS011;17300;50.374;8.006;2022-07-29T08:24:19;1.55;;;1.30;;
30519;SDS011;17300;50.374;8.006;2022-07-29T08:27:05;1.80;;;1.33;;
30519;SDS011;17300;50.374;8.006;2022-07-29T08:29:33;2.05;;;1.38;;
30519;SDS011;17300;50.374;8.006;2022-07-29T08:31:59;1.52;;;1.40;;
30519;SDS011;17300;50.374;8.006;2022-07-29T08:34:26;1.45;;;1.23;;
30519;SDS011;17300;50.374;8.006;2022-07-29T08:36:53;1.95;;;1.30;;
30519;SDS011;17300;50.374;8.006;2022-07-29T08:39:20;3.03;;;1.45;;
30519;SDS011;17300;50.374;8.006;2022-07-29T08:41:47;1.50;;;1.38;;
30519;SDS011;17300;50.374;8.006;2022-07-29T08:44:16;3.15;;;1.83;;
30519;SDS011;17300;50.374;8.006;2022-07-29T08:46:44;2.90;;;1.50;;
30519;SDS011;17300;50.374;8.006;2022-07-29T08:49:10;2.05;;;1.75;;
30519;SDS011;17300;50.374;8.006;2022-07-29T08:51:38;2.60;;;1.17;;
30519;SDS011;17300;50.374;8.006;2022-07-29T08:54:06;2.42;;;1.60;;
30519;SDS011;17300;50.374;8.006;2022-07-29T08:56:35;1.60;;;1.30;;
30519;SDS011;17300;50.374;8.006;2022-07-29T08:59:03;1.90;;;1.40;;
30519;SDS011;17300;50.374;8.006;2022-07-29T09:01:32;3.15;;;1.17;;
30519;SDS011;17300;50.374;8.006;2022-07-29T09:04:00;1.58;;;1.48;;
30519;SDS011;17300;50.374;8.006;2022-07-29T09:06:30;1.73;;;1.40;;
30519;SDS011;17300;50.374;8.006;2022-07-29T09:08:59;1.50;;;1.40;;
30519;SDS011;17300;50.374;8.006;2022-07-29T09:11:26;2.20;;;1.30;;
30519;SDS011;17300;50.374;8.006;2022-07-29T09:13:53;3.15;;;1.80;;
30519;SDS011;17300;50.374;8.006;2022-07-29T09:16:20;1.75;;;1.40;;
30519;SDS011;17300;50.374;8.006;2022-07-29T09:18:48;2.92;;;1.58;;
30519;SDS011;17300;50.374;8.006;2022-07-29T09:21:15;2.05;;;1.55;;
30519;SDS011;17300;50.374;8.006;2022-07-29T09:24:01;3.65;;;1.60;;
30519;SDS011;17300;50.374;8.006;2022-07-29T09:26:32;1.73;;;1.40;;
30519;SDS011;17300;50.374;8.006;2022-07-29T09:29:01;1.65;;;1.55;;
30519;SDS011;17300;50.374;8.006;2022-07-29T09:31:35;1.83;;;1.50;;
30519;SDS011;17300;50.374;8.006;2022-07-29T09:34:04;1.50;;;1.40;;
30519;SDS011;17300;50.374;8.006;2022-07-29T09:36:37;2.03;;;1.52;;
30519;SDS011;17300;50.374;8.006;2022-07-29T09:39:05;1.27;;;1.17;;
30519;SDS011;17300;50.374;8.006;2022-07-29T09:41:43;1.75;;;1.35;;
30519;SDS011;17300;50.374;8.006;2022-07-29T09:44:14;2.00;;;1.55;;
30519;SDS011;17300;50.374;8.006;2022-07-29T09:46:52;1.65;;;1.52;;
30519;SDS011;17300;50.374;8.006;2022-07-29T09:49:21;2.30;;;1.55;;
30519;SDS011;17300;50.374;8.006;2022-07-29T09:51:58;1.30;;;1.20;;
30519;SDS011;17300;50.374;8.006;2022-07-29T09:54:26;2.13;;;1.40;;
30519;SDS011;17300;50.374;8.006;2022-07-29T09:56:54;1.77;;;1.60;;
30519;SDS011;17300;50.374;8.006;2022-07-29T09:59:21;1.90;;;1.70;;
30519;SDS011;17300;50.374;8.006;2022-07-29T10:01:51;1.42;;;1.33;;
30519;SDS011;17300;50.374;8.006;2022-07-29T10:04:18;1.83;;;1.50;;
30519;SDS011;17300;50.374;8.006;2022-07-29T10:06:56;1.65;;;1.52;;
30519;SDS011;17300;50.374;8.006;2022-07-29T10:09:25;3.42;;;1.70;;
30519;SDS011;17300;50.374;8.006;2022-07-29T10:12:05;3.70;;;1.83;;
30519;SDS011;17300;50.374;8.006;2022-07-29T10:14:35;3.47;;;3.15;;
30519;SDS011;17300;50.374;8.006;2022-07-29T10:17:03;3.25;;;2.90;;
30519;SDS011;17300;50.374;8.006;2022-07-29T10:19:32;2.53;;;2.10;;
30519;SDS011;17300;50.374;8.006;2022-07-29T10:22:01;1.75;;;1.52;;
30519;SDS011;17300;50.374;8.006;2022-07-29T10:24:30;2.35;;;2.15;;
30519;SDS011;17300;50.374;8.006;2022-07-29T10:26:58;2.80;;;2.60;;
30519;SDS011;17300;50.374;8.006;2022-07-29T10:29:26;2.75;;;2.40;;
30519;SDS011;17300;50.374;8.006;2022-07-29T10:31:58;2.17;;;1.88;;
30519;SDS011;17300;50.374;8.006;2022-07-29T10:34:48;2.20;;;1.48;;
30519;SDS011;17300;50.374;8.006;2022-07-29T10:37:34;2.38;;;1.65;;
30519;SDS011;17300;50.374;8.006;2022-07-29T10:40:15;2.63;;;1.80;;
30519;SDS011;17300;50.374;8.006;2022-07-29T10:43:14;2.80;;;1.83;;
30519;SDS011;17300;50.374;8.006;2022-07-29T10:45:45;3.90;;;1.70;;
30519;SDS011;17300;50.374;8.006;2022-07-29T10:48:14;1.70;;;1.58;;
30519;SDS011;17300;50.374;8.006;2022-07-29T10:50:55;1.48;;;1.38;;
30519;SDS011;17300;50.374;8.006;2022-07-29T10:53:23;3.08;;;1.73;;
30519;SDS011;17300;50.374;8.006;2022-07-29T10:55:57;2.00;;;1.90;;
30519;SDS011;17300;50.374;8.006;2022-07-29T10:58:23;2.00;;;1.80;;
30519;SDS011;17300;50.374;8.006;2022-07-29T11:00:51;1.65;;;1.55;;
30519;SDS011;17300;50.374;8.006;2022-07-29T11:03:42;2.20;;;1.70;;
30519;SDS011;17300;50.374;8.006;2022-07-29T11:06:11;1.67;;;1.48;;
30519;SDS011;17300;50.374;8.006;2022-07-29T11:08:38;2.28;;;1.65;;
30519;SDS011;17300;50.374;8.006;2022-07-29T11:14:06;1.63;;;1.50;;
30519;SDS011;17300;50.374;8.006;2022-07-29T11:19:29;2.15;;;1.52;;
30519;SDS011;17300;50.374;8.006;2022-07-29T11:21:57;2.38;;;1.33;;
30519;SDS011;17300;50.374;8.006;2022-07-29T11:24:25;1.65;;;1.55;;
30519;SDS011;17300;50.374;8.006;2022-07-29T11:27:08;1.95;;;1.50;;
30519;SDS011;17300;50.374;8.006;2022-07-29T11:29:38;4.40;;;4.07;;
30519;SDS011;17300;50.374;8.006;2022-07-29T11:32:08;3.03;;;2.83;;
30519;SDS011;17300;50.374;8.006;2022-07-29T11:34:36;8.05;;;7.35;;
30519;SDS011;17300;50.374;8.006;2022-07-29T11:37:16;3.97;;;3.42;;
30519;SDS011;17300;50.374;8.006;2022-07-29T11:42:47;1.75;;;1.65;;
30519;SDS011;17300;50.374;8.006;2022-07-29T11:45:19;1.70;;;1.60;;
30519;SDS011;17300;50.374;8.006;2022-07-29T11:47:49;1.70;;;1.58;;
30519;SDS011;17300;50.374;8.006;2022-07-29T11:50:28;2.15;;;1.70;;
30519;SDS011;17300;50.374;8.006;2022-07-29T11:52:59;2.38;;;1.80;;
30519;SDS011;17300;50.374;8.006;2022-07-29T11:55:26;3.08;;;1.70;;
30519;SDS011;17300;50.374;8.006;2022-07-29T11:57:53;2.20;;;1.80;;
30519;SDS011;17300;50.374;8.006;2022-07-29T12:00:23;1.77;;;1.60;;
30519;SDS011;17300;50.374;8.006;2022-07-29T12:02:52;1.75;;;1.50;;
30519;SDS011;17300;50.374;8.006;2022-07-29T12:05:19;2.50;;;1.85;;
30519;SDS011;17300;50.374;8.006;2022-07-29T12:07:47;1.67;;;1.58;;
30519;SDS011;17300;50.374;8.006;2022-07-29T12:10:15;1.80;;;1.70;;
30519;SDS011;17300;50.374;8.006;2022-07-29T12:12:42;2.08;;;1.70;;
30519;SDS011;17300;50.374;8.006;2022-07-29T12:15:17;1.73;;;1.50;;
30519;SDS011;17300;50.374;8.006;2022-07-29T12:17:45;1.70;;;1.60;;
30519;SDS011;17300;50.374;8.006;2022-07-29T12:20:14;1.52;;;1.42;;
30519;SDS011;17300;50.374;8.006;2022-07-29T12:22:48;2.58;;;1.58;;
30519;SDS011;17300;50.374;8.006;2022-07-29T12:25:17;1.90;;;1.73;;
30519;SDS011;17300;50.374;8.006;2022-07-29T12:27:43;1.85;;;1.60;;
30519;SDS011;17300;50.374;8.006;2022-07-29T12:30:11;2.42;;;1.48;;
30519;SDS011;17300;50.374;8.006;2022-07-29T12:32:41;1.35;;;1.25;;
30519;SDS011;17300;50.374;8.006;2022-07-29T12:35:10;1.85;;;1.75;;
30519;SDS011;17300;50.374;8.006;2022-07-29T12:37:38;2.30;;;1.67;;
30519;SDS011;17300;50.374;8.006;2022-07-29T12:40:07;1.50;;;1.40;;
30519;SDS011;17300;50.374;8.006;2022-07-29T12:42:36;1.48;;;1.35;;
30519;SDS011;17300;50.374;8.006;2022-07-29T12:45:04;2.65;;;1.60;;
30519;SDS011;17300;50.374;8.006;2022-07-29T12:47:32;1.80;;;1.70;;
30519;SDS011;17300;50.374;8.006;2022-07-29T12:50:16;2.13;;;1.55;;
30519;SDS011;17300;50.374;8.006;2022-07-29T12:52:44;1.67;;;1.52;;
30519;SDS011;17300;50.374;8.006;2022-07-29T12:55:11;1.90;;;1.73;;
30519;SDS011;17300;50.374;8.006;2022-07-29T12:57:46;2.22;;;1.40;;
30519;SDS011;17300;50.374;8.006;2022-07-29T13:00:15;2.20;;;1.52;;
30519;SDS011;17300;50.374;8.006;2022-07-29T13:02:43;3.50;;;1.60;;
30519;SDS011;17300;50.374;8.006;2022-07-29T13:05:10;1.98;;;1.55;;
30519;SDS011;17300;50.374;8.006;2022-07-29T13:07:37;1.55;;;1.45;;
30519;SDS011;17300;50.374;8.006;2022-07-29T13:10:14;1.60;;;1.50;;
30519;SDS011;17300;50.374;8.006;2022-07-29T13:13:02;1.55;;;1.45;;
30519;SDS011;17300;50.374;8.006;2022-07-29T13:15:31;1.63;;;1.40;;
30519;SDS011;17300;50.374;8.006;2022-07-29T13:17:58;1.65;;;1.50;;
30519;SDS011;17300;50.374;8.006;2022-07-29T13:20:25;1.58;;;1.48;;
30519;SDS011;17300;50.374;8.006;2022-07-29T13:22:54;1.60;;;1.50;;
30519;SDS011;17300;50.374;8.006;2022-07-29T13:25:25;1.80;;;1.50;;
30519;SDS011;17300;50.374;8.006;2022-07-29T13:27:53;2.45;;;1.42;;
30519;SDS011;17300;50.374;8.006;2022-07-29T13:30:22;1.60;;;1.50;;
30519;SDS011;17300;50.374;8.006;2022-07-29T13:32:49;1.52;;;1.42;;
30519;SDS011;17300;50.374;8.006;2022-07-29T13:35:17;1.73;;;1.30;;
30519;SDS011;17300;50.374;8.006;2022-07-29T13:37:45;1.73;;;1.63;;
30519;SDS011;17300;50.374;8.006;2022-07-29T13:40:12;1.95;;;1.65;;
30519;SDS011;17300;50.374;8.006;2022-07-29T13:42:39;1.98;;;1.75;;
30519;SDS011;17300;50.374;8.006;2022-07-29T13:45:07;1.77;;;1.67;;
30519;SDS011;17300;50.374;8.006;2022-07-29T13:47:37;1.60;;;1.50;;
30519;SDS011;17300;50.374;8.006;2022-07-29T13:50:05;1.60;;;1.50;;
30519;SDS011;17300;50.374;8.006;2022-07-29T13:52:35;1.52;;;1.40;;
30519;SDS011;17300;50.374;8.006;2022-07-29T13:55:02;2.75;;;1.40;;
30519;SDS011;17300;50.374;8.006;2022-07-29T13:57:30;2.08;;;1.00;;
30519;SDS011;17300;50.374;8.006;2022-07-29T13:59:57;6.05;;;1.55;;
30519;SDS011;17300;50.374;8.006;2022-07-29T14:02:23;1.67;;;1.40;;
30519;SDS011;17300;50.374;8.006;2022-07-29T14:04:51;1.48;;;1.38;;
30519;SDS011;17300;50.374;8.006;2022-07-29T14:07:19;1.45;;;1.20;;
30519;SDS011;17300;50.374;8.006;2022-07-29T14:09:45;1.45;;;1.13;;
30519;SDS011;17300;50.374;8.006;2022-07-29T14:12:12;1.90;;;1.25;;
30519;SDS011;17300;50.374;8.006;2022-07-29T14:14:39;1.55;;;1.00;;
30519;SDS011;17300;50.374;8.006;2022-07-29T14:17:06;1.60;;;1.02;;
30519;SDS011;17300;50.374;8.006;2022-07-29T14:19:33;1.08;;;0.98;;
30519;SDS011;17300;50.374;8.006;2022-07-29T14:22:04;1.08;;;1.02;;
30519;SDS011;17300;50.374;8.006;2022-07-29T14:24:31;1.73;;;1.00;;
30519;SDS011;17300;50.374;8.006;2022-07-29T14:26:58;1.00;;;1.00;;
30519;SDS011;17300;50.374;8.006;2022-07-29T14:29:25;1.20;;;1.10;;
30519;SDS011;17300;50.374;8.006;2022-07-29T14:31:52;1.55;;;1.10;;
30519;SDS011;17300;50.374;8.006;2022-07-29T14:34:19;1.20;;;1.10;;
30519;SDS011;17300;50.374;8.006;2022-07-29T14:36:46;1.20;;;1.10;;
30519;SDS011;17300;50.374;8.006;2022-07-29T14:39:16;1.40;;;1.25;;
30519;SDS011;17300;50.374;8.006;2022-07-29T14:41:43;1.80;;;1.30;;
30519;SDS011;17300;50.374;8.006;2022-07-29T14:44:10;1.75;;;1.15;;
30519;SDS011;17300;50.374;8.006;2022-07-29T14:46:37;1.40;;;1.30;;
30519;SDS011;17300;50.374;8.006;2022-07-29T14:49:04;1.70;;;1.30;;
30519;SDS011;17300;50.374;8.006;2022-07-29T14:51:31;1.60;;;1.10;;
30519;SDS011;17300;50.374;8.006;2022-07-29T14:53:58;1.60;;;1.10;;
30519;SDS011;17300;50.374;8.006;2022-07-29T14:56:26;1.45;;;1.30;;
30519;SDS011;17300;50.374;8.006;2022-07-29T14:58:54;1.40;;;1.30;;
30519;SDS011;17300;50.374;8.006;2022-07-29T15:01:22;1.08;;;1.02;;
30519;SDS011;17300;50.374;8.006;2022-07-29T15:03:48;1.52;;;1.33;;
30519;SDS011;17300;50.374;8.006;2022-07-29T15:06:17;1.58;;;1.48;;
30519;SDS011;17300;50.374;8.006;2022-07-29T15:08:44;1.33;;;1.23;;
30519;SDS011;17300;50.374;8.006;2022-07-29T15:11:10;1.65;;;1.45;;